createdAt,value
2023-02-27T07:36:41.403Z,99.90
2023-02-27T07:43:56.665Z,99.90
2023-02-27T08:02:44.274Z,99.90
2023-02-27T08:08:45.926Z,99.90
2023-02-27T08:11:59.505Z,99.90
2023-02-27T08:18:05.930Z,99.90
2023-02-27T08:23:35.256Z,99.90
2023-02-27T08:27:01.482Z,99.90
2023-02-27T09:20:17.921Z,99.90
2023-02-27T09:22:36.251Z,99.90
2023-02-27T09:26:00.142Z,99.90
2023-02-27T09:28:44.808Z,99.90
2023-02-27T09:34:55.831Z,99.90
2023-02-27T09:41:01.436Z,99.90
2023-02-27T09:46:06.261Z,99.90
2023-02-27T10:06:28.161Z,99.90
2023-02-27T10:09:37.017Z,99.90
2023-02-27T10:12:43.790Z,99.90
2023-02-27T10:15:39.285Z,99.90
2023-02-27T10:25:28.698Z,99.90
2023-02-27T10:33:38.586Z,99.90
2023-02-27T10:39:26.747Z,99.90
2023-02-27T10:44:28.936Z,99.90
2023-02-27T10:48:46.255Z,99.90
2023-02-27T10:50:46.388Z,99.90
2023-02-27T10:53:35.961Z,99.90
2023-02-27T10:56:19.159Z,99.90
2023-02-27T11:03:47.523Z,99.90
2023-02-27T11:06:24.902Z,99.90
2023-02-27T11:09:22.370Z,99.90
2023-02-27T11:11:51.610Z,99.90
2023-02-27T11:14:36.101Z,99.90
2023-02-27T11:17:04.624Z,99.90
2023-02-27T11:19:39.266Z,99.90
2023-02-27T11:22:28.031Z,99.90
2023-02-27T11:25:19.865Z,99.90
2023-02-27T11:27:52.054Z,99.90
2023-02-27T11:30:28.559Z,99.90
2023-02-27T11:32:59.077Z,99.90
2023-02-27T11:35:38.648Z,99.90
2023-02-27T11:38:07.881Z,99.90
2023-02-27T11:40:42.563Z,99.90
2023-02-27T11:43:34.638Z,96.80
2023-02-27T11:46:46.587Z,99.90
2023-02-27T11:49:31.511Z,99.90
2023-02-27T11:52:45.979Z,99.90
2023-02-27T11:55:18.089Z,99.90
2023-02-27T11:57:47.079Z,99.90
2023-02-27T12:02:53.416Z,99.90
2023-02-27T12:08:18.298Z,99.90
2023-02-27T12:10:52.039Z,99.90
2023-02-27T12:13:27.468Z,99.90
2023-02-27T12:16:04.894Z,99.90
2023-02-27T12:18:53.248Z,99.90
2023-02-27T12:21:29.881Z,99.90
2023-02-27T12:24:03.771Z,99.90
2023-02-27T12:26:43.758Z,99.90
2023-02-27T12:29:43.726Z,96.90
2023-02-27T12:32:24.121Z,95.40
2023-02-27T12:35:06.617Z,96.10
2023-02-27T12:37:33.862Z,94.40
2023-02-27T12:40:07.770Z,83.40
2023-02-27T12:43:05.942Z,79.40
2023-02-27T12:46:01.723Z,78.90
2023-02-27T12:48:44.294Z,75.40
2023-02-27T12:51:15.978Z,75.10
2023-02-27T12:56:17.115Z,72.90
2023-02-27T12:59:09.116Z,73.70
2023-02-27T13:01:51.826Z,75.90
2023-02-27T13:04:26.235Z,77.70
2023-02-27T13:07:04.964Z,77.70
2023-02-27T13:09:55.681Z,81.30
2023-02-27T13:12:36.277Z,79.50
2023-02-27T13:15:27.071Z,79.70
2023-02-27T13:18:30.544Z,72.40
2023-02-27T13:21:09.984Z,72.60
2023-02-27T13:23:50.093Z,73.60
2023-02-27T13:26:27.226Z,73.50
2023-02-27T13:28:55.837Z,72.00
2023-02-27T13:31:53.078Z,69.70
2023-02-27T13:34:27.798Z,69.80
2023-02-27T13:37:14.452Z,72.50
2023-02-27T13:39:47.284Z,69.60
2023-02-27T13:42:26.610Z,71.10
2023-02-27T13:45:02.051Z,72.10
2023-02-27T13:50:21.963Z,72.50
2023-02-27T13:55:43.329Z,76.20
2023-02-27T13:58:18.012Z,73.60
2023-02-27T14:01:03.147Z,74.50
2023-02-27T14:03:32.210Z,78.60
2023-02-27T14:06:04.228Z,72.50
2023-02-27T14:08:46.575Z,71.40
2023-02-27T14:11:24.973Z,73.50
2023-02-27T14:16:40.226Z,69.80
2023-02-27T14:19:17.274Z,74.40
2023-02-27T14:21:53.405Z,73.90
2023-02-27T14:24:28.834Z,72.00
2023-02-27T14:26:57.022Z,71.60
2023-02-27T14:29:33.401Z,71.70
2023-02-27T14:32:01.930Z,72.80
2023-02-27T14:34:29.626Z,69.70
2023-02-27T14:37:01.719Z,68.40
2023-02-27T14:39:33.638Z,70.90
2023-02-27T14:42:21.705Z,70.40
2023-02-27T14:44:50.969Z,69.40
2023-02-27T14:47:33.335Z,65.90
2023-02-27T14:50:31.346Z,66.80
2023-02-27T14:55:35.517Z,69.80
2023-02-27T14:58:32.032Z,70.80
2023-02-27T15:01:12.871Z,67.60
2023-02-27T15:04:12.283Z,69.10
2023-02-27T15:07:00.672Z,67.40
2023-02-27T15:10:12.131Z,70.20
2023-02-27T15:15:48.979Z,63.20
2023-02-27T15:19:09.554Z,65.90
2023-02-27T15:21:59.062Z,65.20
2023-02-27T15:24:35.241Z,67.00
2023-02-27T15:30:50.842Z,67.30
2023-02-27T15:33:22.631Z,69.60
2023-02-27T15:35:50.098Z,69.80
2023-02-27T15:38:40.267Z,68.30
2023-02-27T15:42:07.354Z,66.50
2023-02-27T15:44:54.384Z,68.90
2023-02-27T15:47:44.752Z,71.40
2023-02-27T15:50:39.086Z,73.10
2023-02-27T15:53:25.966Z,73.00
2023-02-27T15:56:22.953Z,70.30
2023-02-27T15:59:29.908Z,70.10
2023-02-27T16:09:23.881Z,73.50
2023-02-27T16:12:35.898Z,72.50
2023-02-27T16:16:09.508Z,76.10
2023-02-27T16:19:25.582Z,77.50
2023-02-27T16:22:14.931Z,77.90
2023-02-27T16:24:45.402Z,80.80
2023-02-27T16:27:19.703Z,81.20
2023-02-27T16:32:46.936Z,80.50
2023-02-27T16:35:32.294Z,85.40
2023-02-27T16:38:12.098Z,89.30
2023-02-27T16:43:43.055Z,88.80
2023-02-27T16:46:23.938Z,88.20
2023-02-27T16:49:17.619Z,85.40
2023-02-27T16:56:46.540Z,90.80
2023-02-27T16:59:34.458Z,90.00
2023-02-27T17:02:25.091Z,91.10
2023-02-27T17:10:23.120Z,92.20
2023-02-27T17:12:58.645Z,94.10
2023-02-27T17:40:26.131Z,99.90
2023-02-27T17:48:05.247Z,99.90
2023-02-27T18:07:56.043Z,99.90
2023-02-27T18:10:25.220Z,99.90
2023-02-27T18:12:55.507Z,99.90
2023-02-27T18:15:23.193Z,99.90
2023-02-27T18:17:53.030Z,99.90
2023-02-27T18:28:01.584Z,99.90
2023-02-27T18:30:40.900Z,99.90
2023-02-27T18:33:10.507Z,99.90
2023-02-27T18:48:07.531Z,99.90
2023-02-27T18:50:42.396Z,99.90
2023-02-27T18:53:10.882Z,99.90
2023-02-27T19:00:43.791Z,99.90
2023-02-27T19:16:04.883Z,99.90
2023-02-27T19:21:09.096Z,99.90
2023-02-27T19:26:05.076Z,99.90
2023-02-27T19:28:38.247Z,99.90
2023-02-27T19:31:16.857Z,99.90
2023-02-27T19:34:17.872Z,99.90
2023-02-27T19:44:23.808Z,99.90
2023-02-27T19:49:23.820Z,99.90
2023-02-27T19:51:50.945Z,99.90
2023-02-27T19:54:41.393Z,99.90
2023-02-27T20:00:19.922Z,99.90
2023-02-27T20:16:37.052Z,99.90
2023-02-27T20:22:44.828Z,99.90
2023-02-27T20:25:33.174Z,99.90
2023-02-27T20:38:19.943Z,99.90
2023-02-27T20:41:05.010Z,99.90
2023-02-27T20:46:16.165Z,99.90
2023-02-27T20:51:20.384Z,99.90
2023-02-27T20:53:55.293Z,99.90
2023-02-27T20:56:36.588Z,99.90
2023-02-27T20:59:08.410Z,99.90
2023-02-27T21:04:22.462Z,99.90
2023-02-27T21:06:57.095Z,99.90
2023-02-27T21:26:18.960Z,99.90
2023-02-27T21:28:57.336Z,99.90
2023-02-27T21:32:26.313Z,99.90
2023-02-27T21:35:37.460Z,99.90
2023-02-27T21:38:37.901Z,99.90
2023-02-27T21:44:34.437Z,99.90
2023-02-27T21:49:46.025Z,99.90
2023-02-27T22:04:47.639Z,99.90
2023-02-27T22:07:49.516Z,99.90
2023-02-27T22:34:41.219Z,99.90
2023-02-27T22:37:36.576Z,99.90
2023-02-27T22:40:29.384Z,99.90
2023-02-27T22:47:53.723Z,99.90
2023-02-27T22:51:03.543Z,99.90
2023-02-27T22:53:55.854Z,99.90
2023-02-27T22:56:52.023Z,99.90
2023-02-27T23:00:03.965Z,99.90
